sensor_id;sensor_type;location;lat;lon;timestamp;P1;durP1;ratioP1;P2;durP2;ratioP2
11247;SDS011;5681;53.316;13.950;2023-02-04T00:02:19;2.07;;;1.20;;
11247;SDS011;5681;53.316;13.950;2023-02-04T00:04:46;3.43;;;1.30;;
11247;SDS011;5681;53.316;13.950;2023-02-04T00:07:13;5.43;;;1.50;;
11247;SDS011;5681;53.316;13.950;2023-02-04T00:09:41;7.03;;;1.50;;
11247;SDS011;5681;53.316;13.950;2023-02-04T00:12:07;4.23;;;1.43;;
11247;SDS011;5681;53.316;13.950;2023-02-04T00:14:35;2.67;;;1.20;;
11247;SDS011;5681;53.316;13.950;2023-02-04T00:17:01;3.00;;;1.43;;
11247;SDS011;5681;53.316;13.950;2023-02-04T00:19:27;3.73;;;1.60;;
11247;SDS011;5681;53.316;13.950;2023-02-04T00:21:55;3.83;;;1.27;;
11247;SDS011;5681;53.316;13.950;2023-02-04T00:24:21;3.80;;;1.40;;
11247;SDS011;5681;53.316;13.950;2023-02-04T00:26:47;2.70;;;1.10;;
11247;SDS011;5681;53.316;13.950;2023-02-04T00:29:14;3.00;;;1.10;;
11247;SDS011;5681;53.316;13.950;2023-02-04T00:31:40;2.43;;;1.20;;
11247;SDS011;5681;53.316;13.950;2023-02-04T00:34:06;2.43;;;1.30;;
11247;SDS011;5681;53.316;13.950;2023-02-04T00:36:33;4.07;;;1.30;;
11247;SDS011;5681;53.316;13.950;2023-02-04T00:39:00;3.30;;;1.30;;
11247;SDS011;5681;53.316;13.950;2023-02-04T00:41:27;5.17;;;1.70;;
11247;SDS011;5681;53.316;13.950;2023-02-04T00:43:53;5.20;;;1.53;;
11247;SDS011;5681;53.316;13.950;2023-02-04T00:46:19;3.93;;;1.27;;
11247;SDS011;5681;53.316;13.950;2023-02-04T00:48:46;4.30;;;1.40;;
11247;SDS011;5681;53.316;13.950;2023-02-04T00:51:12;7.20;;;1.40;;
11247;SDS011;5681;53.316;13.950;2023-02-04T00:53:39;6.03;;;1.33;;
11247;SDS011;5681;53.316;13.950;2023-02-04T00:56:06;6.13;;;1.40;;
11247;SDS011;5681;53.316;13.950;2023-02-04T00:58:33;4.23;;;1.50;;
11247;SDS011;5681;53.316;13.950;2023-02-04T01:00:59;2.33;;;1.23;;
11247;SDS011;5681;53.316;13.950;2023-02-04T01:03:25;4.40;;;1.50;;
11247;SDS011;5681;53.316;13.950;2023-02-04T01:05:52;4.97;;;1.50;;
11247;SDS011;5681;53.316;13.950;2023-02-04T01:08:18;3.80;;;1.70;;
11247;SDS011;5681;53.316;13.950;2023-02-04T01:10:44;3.20;;;1.50;;
11247;SDS011;5681;53.316;13.950;2023-02-04T01:13:12;4.13;;;1.67;;
11247;SDS011;5681;53.316;13.950;2023-02-04T01:15:39;6.87;;;1.60;;
11247;SDS011;5681;53.316;13.950;2023-02-04T01:18:05;4.77;;;1.40;;
11247;SDS011;5681;53.316;13.950;2023-02-04T01:20:31;3.67;;;1.50;;
11247;SDS011;5681;53.316;13.950;2023-02-04T01:22:58;4.13;;;1.30;;
11247;SDS011;5681;53.316;13.950;2023-02-04T01:25:24;4.63;;;1.40;;
11247;SDS011;5681;53.316;13.950;2023-02-04T01:27:50;5.27;;;1.50;;
11247;SDS011;5681;53.316;13.950;2023-02-04T01:30:18;6.63;;;1.57;;
11247;SDS011;5681;53.316;13.950;2023-02-04T01:32:44;3.83;;;1.47;;
11247;SDS011;5681;53.316;13.950;2023-02-04T01:35:11;5.90;;;1.50;;
11247;SDS011;5681;53.316;13.950;2023-02-04T01:37:37;3.87;;;1.27;;
11247;SDS011;5681;53.316;13.950;2023-02-04T01:40:04;3.97;;;1.30;;
11247;SDS011;5681;53.316;13.950;2023-02-04T01:42:31;1.70;;;1.10;;
11247;SDS011;5681;53.316;13.950;2023-02-04T01:44:57;3.80;;;1.20;;
11247;SDS011;5681;53.316;13.950;2023-02-04T01:47:25;3.93;;;1.40;;
11247;SDS011;5681;53.316;13.950;2023-02-04T01:49:52;5.57;;;1.50;;
11247;SDS011;5681;53.316;13.950;2023-02-04T01:52:19;3.50;;;1.53;;
11247;SDS011;5681;53.316;13.950;2023-02-04T01:54:46;3.50;;;1.10;;
11247;SDS011;5681;53.316;13.950;2023-02-04T01:57:13;3.50;;;1.20;;
11247;SDS011;5681;53.316;13.950;2023-02-04T01:59:41;3.07;;;1.20;;
11247;SDS011;5681;53.316;13.950;2023-02-04T02:05:06;3.83;;;1.13;;
11247;SDS011;5681;53.316;13.950;2023-02-04T02:07:33;2.80;;;1.17;;
11247;SDS011;5681;53.316;13.950;2023-02-04T02:10:00;3.33;;;1.10;;
11247;SDS011;5681;53.316;13.950;2023-02-04T02:12:26;2.37;;;1.07;;
11247;SDS011;5681;53.316;13.950;2023-02-04T02:14:53;4.63;;;1.20;;
11247;SDS011;5681;53.316;13.950;2023-02-04T02:17:19;3.93;;;1.37;;
11247;SDS011;5681;53.316;13.950;2023-02-04T02:19:47;4.27;;;1.60;;
11247;SDS011;5681;53.316;13.950;2023-02-04T02:22:15;6.17;;;1.53;;
11247;SDS011;5681;53.316;13.950;2023-02-04T02:24:43;5.13;;;1.30;;
11247;SDS011;5681;53.316;13.950;2023-02-04T02:27:10;4.93;;;1.53;;
11247;SDS011;5681;53.316;13.950;2023-02-04T02:29:37;2.07;;;1.07;;
11247;SDS011;5681;53.316;13.950;2023-02-04T02:32:05;5.37;;;1.50;;
11247;SDS011;5681;53.316;13.950;2023-02-04T02:34:33;7.93;;;1.40;;
11247;SDS011;5681;53.316;13.950;2023-02-04T02:37:00;2.57;;;1.10;;
11247;SDS011;5681;53.316;13.950;2023-02-04T02:39:27;4.93;;;1.40;;
11247;SDS011;5681;53.316;13.950;2023-02-04T02:41:55;6.63;;;1.30;;
11247;SDS011;5681;53.316;13.950;2023-02-04T02:44:22;3.47;;;1.20;;
11247;SDS011;5681;53.316;13.950;2023-02-04T02:46:49;6.70;;;1.50;;
11247;SDS011;5681;53.316;13.950;2023-02-04T02:49:16;3.07;;;1.10;;
11247;SDS011;5681;53.316;13.950;2023-02-04T02:51:43;3.93;;;1.30;;
11247;SDS011;5681;53.316;13.950;2023-02-04T02:54:12;5.67;;;1.40;;
11247;SDS011;5681;53.316;13.950;2023-02-04T02:56:45;4.07;;;1.20;;
11247;SDS011;5681;53.316;13.950;2023-02-04T02:59:13;3.53;;;1.10;;
11247;SDS011;5681;53.316;13.950;2023-02-04T03:01:40;4.30;;;1.43;;
11247;SDS011;5681;53.316;13.950;2023-02-04T03:04:07;3.47;;;1.27;;
11247;SDS011;5681;53.316;13.950;2023-02-04T03:06:34;4.13;;;1.40;;
11247;SDS011;5681;53.316;13.950;2023-02-04T03:09:00;2.43;;;1.30;;
11247;SDS011;5681;53.316;13.950;2023-02-04T03:11:26;2.53;;;1.03;;
11247;SDS011;5681;53.316;13.950;2023-02-04T03:13:54;3.30;;;1.20;;
11247;SDS011;5681;53.316;13.950;2023-02-04T03:16:22;3.63;;;1.23;;
11247;SDS011;5681;53.316;13.950;2023-02-04T03:18:48;4.20;;;1.30;;
11247;SDS011;5681;53.316;13.950;2023-02-04T03:21:15;3.07;;;1.20;;
11247;SDS011;5681;53.316;13.950;2023-02-04T03:23:41;3.83;;;1.27;;
11247;SDS011;5681;53.316;13.950;2023-02-04T03:26:07;4.60;;;1.50;;
11247;SDS011;5681;53.316;13.950;2023-02-04T03:28:37;1.97;;;1.10;;
11247;SDS011;5681;53.316;13.950;2023-02-04T03:31:04;1.97;;;1.00;;
11247;SDS011;5681;53.316;13.950;2023-02-04T03:33:32;4.00;;;1.30;;
11247;SDS011;5681;53.316;13.950;2023-02-04T03:36:00;4.33;;;1.40;;
11247;SDS011;5681;53.316;13.950;2023-02-04T03:38:26;2.90;;;1.20;;
11247;SDS011;5681;53.316;13.950;2023-02-04T03:40:53;1.93;;;1.20;;
11247;SDS011;5681;53.316;13.950;2023-02-04T03:43:19;3.57;;;1.60;;
11247;SDS011;5681;53.316;13.950;2023-02-04T03:45:45;1.87;;;0.90;;
11247;SDS011;5681;53.316;13.950;2023-02-04T03:48:12;3.23;;;1.20;;
11247;SDS011;5681;53.316;13.950;2023-02-04T03:50:39;3.20;;;1.30;;
11247;SDS011;5681;53.316;13.950;2023-02-04T03:53:06;3.13;;;1.03;;
11247;SDS011;5681;53.316;13.950;2023-02-04T03:55:32;3.03;;;1.00;;
11247;SDS011;5681;53.316;13.950;2023-02-04T03:58:00;2.97;;;1.30;;
11247;SDS011;5681;53.316;13.950;2023-02-04T04:00:26;3.57;;;1.00;;
11247;SDS011;5681;53.316;13.950;2023-02-04T04:02:52;2.20;;;1.10;;
11247;SDS011;5681;53.316;13.950;2023-02-04T04:05:21;2.07;;;1.03;;
11247;SDS011;5681;53.316;13.950;2023-02-04T04:07:49;2.80;;;1.23;;
11247;SDS011;5681;53.316;13.950;2023-02-04T04:10:15;2.60;;;1.17;;
11247;SDS011;5681;53.316;13.950;2023-02-04T04:12:41;3.73;;;1.10;;
11247;SDS011;5681;53.316;13.950;2023-02-04T04:15:08;1.73;;;1.20;;
11247;SDS011;5681;53.316;13.950;2023-02-04T04:17:34;4.73;;;1.27;;
11247;SDS011;5681;53.316;13.950;2023-02-04T04:20:01;1.10;;;0.90;;
11247;SDS011;5681;53.316;13.950;2023-02-04T04:22:27;3.23;;;1.00;;
11247;SDS011;5681;53.316;13.950;2023-02-04T04:24:55;2.57;;;1.07;;
11247;SDS011;5681;53.316;13.950;2023-02-04T04:27:21;5.83;;;1.10;;
11247;SDS011;5681;53.316;13.950;2023-02-04T04:29:48;2.40;;;1.30;;
11247;SDS011;5681;53.316;13.950;2023-02-04T04:32:14;3.17;;;1.33;;
11247;SDS011;5681;53.316;13.950;2023-02-04T04:34:40;2.37;;;1.20;;
11247;SDS011;5681;53.316;13.950;2023-02-04T04:37:07;2.23;;;1.20;;
11247;SDS011;5681;53.316;13.950;2023-02-04T04:39:33;4.83;;;1.33;;
11247;SDS011;5681;53.316;13.950;2023-02-04T04:42:01;3.23;;;1.10;;
11247;SDS011;5681;53.316;13.950;2023-02-04T04:44:28;3.30;;;1.30;;
11247;SDS011;5681;53.316;13.950;2023-02-04T04:46:54;2.47;;;1.20;;
11247;SDS011;5681;53.316;13.950;2023-02-04T04:49:21;6.20;;;1.20;;
11247;SDS011;5681;53.316;13.950;2023-02-04T04:51:47;3.60;;;1.23;;
11247;SDS011;5681;53.316;13.950;2023-02-04T04:54:14;3.07;;;1.10;;
11247;SDS011;5681;53.316;13.950;2023-02-04T04:56:40;3.60;;;1.10;;
11247;SDS011;5681;53.316;13.950;2023-02-04T04:59:08;6.23;;;1.27;;
11247;SDS011;5681;53.316;13.950;2023-02-04T05:01:34;5.27;;;1.40;;
11247;SDS011;5681;53.316;13.950;2023-02-04T05:04:01;3.27;;;1.40;;
11247;SDS011;5681;53.316;13.950;2023-02-04T05:06:28;5.83;;;1.30;;
11247;SDS011;5681;53.316;13.950;2023-02-04T05:08:54;3.83;;;1.17;;
11247;SDS011;5681;53.316;13.950;2023-02-04T05:11:20;3.27;;;1.47;;
11247;SDS011;5681;53.316;13.950;2023-02-04T05:13:47;3.27;;;1.40;;
11247;SDS011;5681;53.316;13.950;2023-02-04T05:16:15;6.90;;;1.40;;
11247;SDS011;5681;53.316;13.950;2023-02-04T05:18:42;2.00;;;1.00;;
11247;SDS011;5681;53.316;13.950;2023-02-04T05:21:08;3.80;;;1.20;;
11247;SDS011;5681;53.316;13.950;2023-02-04T05:23:35;3.67;;;1.10;;
11247;SDS011;5681;53.316;13.950;2023-02-04T05:26:01;2.97;;;1.30;;
11247;SDS011;5681;53.316;13.950;2023-02-04T05:28:28;4.23;;;1.20;;
11247;SDS011;5681;53.316;13.950;2023-02-04T05:30:54;2.90;;;1.53;;
11247;SDS011;5681;53.316;13.950;2023-02-04T05:33:22;2.83;;;1.30;;
11247;SDS011;5681;53.316;13.950;2023-02-04T05:35:48;2.30;;;1.33;;
11247;SDS011;5681;53.316;13.950;2023-02-04T05:38:14;4.93;;;1.03;;
11247;SDS011;5681;53.316;13.950;2023-02-04T05:40:41;2.20;;;1.27;;
11247;SDS011;5681;53.316;13.950;2023-02-04T05:43:07;3.60;;;1.37;;
11247;SDS011;5681;53.316;13.950;2023-02-04T05:45:36;4.67;;;1.80;;
11247;SDS011;5681;53.316;13.950;2023-02-04T05:48:02;3.27;;;1.47;;
11247;SDS011;5681;53.316;13.950;2023-02-04T05:50:30;3.40;;;1.70;;
11247;SDS011;5681;53.316;13.950;2023-02-04T05:52:57;3.77;;;1.50;;
11247;SDS011;5681;53.316;13.950;2023-02-04T05:55:23;4.20;;;1.47;;
11247;SDS011;5681;53.316;13.950;2023-02-04T05:57:49;3.83;;;1.50;;
11247;SDS011;5681;53.316;13.950;2023-02-04T06:00:16;3.10;;;1.73;;
11247;SDS011;5681;53.316;13.950;2023-02-04T06:02:42;2.90;;;1.40;;
11247;SDS011;5681;53.316;13.950;2023-02-04T06:05:09;4.17;;;1.80;;
11247;SDS011;5681;53.316;13.950;2023-02-04T06:07:36;3.60;;;1.20;;
11247;SDS011;5681;53.316;13.950;2023-02-04T06:10:03;4.93;;;1.43;;
11247;SDS011;5681;53.316;13.950;2023-02-04T06:12:30;2.97;;;1.10;;
11247;SDS011;5681;53.316;13.950;2023-02-04T06:14:56;2.93;;;1.23;;
11247;SDS011;5681;53.316;13.950;2023-02-04T06:17:22;4.07;;;1.60;;
11247;SDS011;5681;53.316;13.950;2023-02-04T06:19:49;5.77;;;1.37;;
11247;SDS011;5681;53.316;13.950;2023-02-04T06:22:15;3.77;;;1.30;;
11247;SDS011;5681;53.316;13.950;2023-02-04T06:24:43;3.40;;;1.43;;
11247;SDS011;5681;53.316;13.950;2023-02-04T06:27:09;4.03;;;1.47;;
11247;SDS011;5681;53.316;13.950;2023-02-04T06:29:36;5.83;;;1.53;;
11247;SDS011;5681;53.316;13.950;2023-02-04T06:32:02;6.47;;;1.77;;
11247;SDS011;5681;53.316;13.950;2023-02-04T06:34:29;3.53;;;1.20;;
11247;SDS011;5681;53.316;13.950;2023-02-04T06:36:55;5.47;;;2.03;;
11247;SDS011;5681;53.316;13.950;2023-02-04T06:39:21;5.07;;;1.60;;
11247;SDS011;5681;53.316;13.950;2023-02-04T06:41:49;2.33;;;1.13;;
11247;SDS011;5681;53.316;13.950;2023-02-04T06:44:15;4.57;;;1.53;;
11247;SDS011;5681;53.316;13.950;2023-02-04T06:46:42;4.13;;;1.30;;
11247;SDS011;5681;53.316;13.950;2023-02-04T06:49:08;5.30;;;1.30;;
11247;SDS011;5681;53.316;13.950;2023-02-04T06:51:35;6.67;;;1.70;;
11247;SDS011;5681;53.316;13.950;2023-02-04T06:54:01;5.63;;;1.53;;
11247;SDS011;5681;53.316;13.950;2023-02-04T06:56:28;4.03;;;1.30;;
11247;SDS011;5681;53.316;13.950;2023-02-04T06:58:56;4.57;;;1.90;;
11247;SDS011;5681;53.316;13.950;2023-02-04T07:01:22;6.37;;;1.70;;
11247;SDS011;5681;53.316;13.950;2023-02-04T07:03:48;3.63;;;1.40;;
11247;SDS011;5681;53.316;13.950;2023-02-04T07:06:15;4.00;;;1.37;;
11247;SDS011;5681;53.316;13.950;2023-02-04T07:08:41;2.60;;;1.47;;
11247;SDS011;5681;53.316;13.950;2023-02-04T07:11:08;3.13;;;1.30;;
11247;SDS011;5681;53.316;13.950;2023-02-04T07:13:34;3.67;;;1.50;;
11247;SDS011;5681;53.316;13.950;2023-02-04T07:16:02;2.73;;;1.30;;
11247;SDS011;5681;53.316;13.950;2023-02-04T07:18:28;5.13;;;1.47;;
11247;SDS011;5681;53.316;13.950;2023-02-04T07:20:54;4.60;;;1.13;;
11247;SDS011;5681;53.316;13.950;2023-02-04T07:23:21;4.63;;;1.50;;
11247;SDS011;5681;53.316;13.950;2023-02-04T07:25:48;2.90;;;1.30;;
11247;SDS011;5681;53.316;13.950;2023-02-04T07:28:16;4.57;;;1.53;;
11247;SDS011;5681;53.316;13.950;2023-02-04T07:30:42;2.73;;;1.13;;
11247;SDS011;5681;53.316;13.950;2023-02-04T07:33:09;3.90;;;1.33;;
11247;SDS011;5681;53.316;13.950;2023-02-04T07:35:36;4.07;;;1.23;;
11247;SDS011;5681;53.316;13.950;2023-02-04T07:38:02;5.27;;;1.47;;
11247;SDS011;5681;53.316;13.950;2023-02-04T07:40:29;2.10;;;1.13;;
11247;SDS011;5681;53.316;13.950;2023-02-04T07:42:55;7.77;;;2.00;;
11247;SDS011;5681;53.316;13.950;2023-02-04T07:45:22;5.40;;;1.23;;
11247;SDS011;5681;53.316;13.950;2023-02-04T07:47:48;3.97;;;1.60;;
11247;SDS011;5681;53.316;13.950;2023-02-04T07:50:16;8.20;;;1.50;;
11247;SDS011;5681;53.316;13.950;2023-02-04T07:52:42;3.13;;;1.20;;
11247;SDS011;5681;53.316;13.950;2023-02-04T07:55:09;6.27;;;1.60;;
11247;SDS011;5681;53.316;13.950;2023-02-04T07:57:35;3.57;;;1.20;;
11247;SDS011;5681;53.316;13.950;2023-02-04T08:00:02;5.07;;;1.60;;
11247;SDS011;5681;53.316;13.950;2023-02-04T08:02:29;3.47;;;1.57;;
11247;SDS011;5681;53.316;13.950;2023-02-04T08:04:56;3.30;;;1.37;;
11247;SDS011;5681;53.316;13.950;2023-02-04T08:07:23;3.67;;;1.33;;
11247;SDS011;5681;53.316;13.950;2023-02-04T08:09:50;5.13;;;1.87;;
11247;SDS011;5681;53.316;13.950;2023-02-04T08:12:16;5.20;;;2.20;;
11247;SDS011;5681;53.316;13.950;2023-02-04T08:14:42;4.20;;;1.70;;
11247;SDS011;5681;53.316;13.950;2023-02-04T08:17:09;6.20;;;1.83;;
11247;SDS011;5681;53.316;13.950;2023-02-04T08:19:38;2.90;;;1.57;;
11247;SDS011;5681;53.316;13.950;2023-02-04T08:22:04;5.80;;;2.00;;
11247;SDS011;5681;53.316;13.950;2023-02-04T08:24:32;4.73;;;1.70;;
11247;SDS011;5681;53.316;13.950;2023-02-04T08:26:58;6.57;;;1.80;;
11247;SDS011;5681;53.316;13.950;2023-02-04T08:29:24;3.83;;;1.90;;
11247;SDS011;5681;53.316;13.950;2023-02-04T08:31:51;9.83;;;2.50;;
11247;SDS011;5681;53.316;13.950;2023-02-04T08:34:17;13.50;;;2.53;;
11247;SDS011;5681;53.316;13.950;2023-02-04T08:36:44;4.40;;;1.80;;
11247;SDS011;5681;53.316;13.950;2023-02-04T08:39:10;5.30;;;1.97;;
11247;SDS011;5681;53.316;13.950;2023-02-04T08:41:38;5.63;;;2.10;;
11247;SDS011;5681;53.316;13.950;2023-02-04T08:44:05;6.23;;;2.37;;
11247;SDS011;5681;53.316;13.950;2023-02-04T08:46:31;6.80;;;2.33;;
11247;SDS011;5681;53.316;13.950;2023-02-04T08:48:58;4.77;;;1.90;;
11247;SDS011;5681;53.316;13.950;2023-02-04T08:51:24;3.70;;;1.30;;
11247;SDS011;5681;53.316;13.950;2023-02-04T08:53:50;4.97;;;1.50;;
11247;SDS011;5681;53.316;13.950;2023-02-04T08:56:17;4.07;;;1.37;;
11247;SDS011;5681;53.316;13.950;2023-02-04T08:58:45;4.60;;;1.60;;
11247;SDS011;5681;53.316;13.950;2023-02-04T09:01:12;6.53;;;1.70;;
11247;SDS011;5681;53.316;13.950;2023-02-04T09:03:39;5.37;;;1.77;;
11247;SDS011;5681;53.316;13.950;2023-02-04T09:06:05;3.63;;;1.30;;
11247;SDS011;5681;53.316;13.950;2023-02-04T09:08:32;5.03;;;1.50;;
11247;SDS011;5681;53.316;13.950;2023-02-04T09:10:59;4.20;;;1.47;;
11247;SDS011;5681;53.316;13.950;2023-02-04T09:13:25;3.23;;;1.27;;
11247;SDS011;5681;53.316;13.950;2023-02-04T09:15:53;3.93;;;1.20;;
11247;SDS011;5681;53.316;13.950;2023-02-04T09:18:19;3.53;;;1.23;;
11247;SDS011;5681;53.316;13.950;2023-02-04T09:20:46;2.77;;;1.30;;
11247;SDS011;5681;53.316;13.950;2023-02-04T09:23:13;6.00;;;1.40;;
11247;SDS011;5681;53.316;13.950;2023-02-04T09:25:41;1.93;;;1.10;;
11247;SDS011;5681;53.316;13.950;2023-02-04T09:28:08;2.70;;;1.10;;
11247;SDS011;5681;53.316;13.950;2023-02-04T09:30:36;2.60;;;1.10;;
11247;SDS011;5681;53.316;13.950;2023-02-04T09:33:04;4.27;;;1.20;;
11247;SDS011;5681;53.316;13.950;2023-02-04T09:35:31;4.43;;;1.07;;
11247;SDS011;5681;53.316;13.950;2023-02-04T09:37:57;3.33;;;1.10;;
11247;SDS011;5681;53.316;13.950;2023-02-04T09:40:26;4.30;;;1.27;;
11247;SDS011;5681;53.316;13.950;2023-02-04T09:42:53;4.20;;;1.20;;
11247;SDS011;5681;53.316;13.950;2023-02-04T09:45:20;2.33;;;1.10;;
11247;SDS011;5681;53.316;13.950;2023-02-04T09:47:48;3.57;;;1.10;;
11247;SDS011;5681;53.316;13.950;2023-02-04T09:50:18;3.90;;;1.27;;
11247;SDS011;5681;53.316;13.950;2023-02-04T09:52:45;3.10;;;1.33;;
11247;SDS011;5681;53.316;13.950;2023-02-04T09:55:14;3.67;;;1.20;;
11247;SDS011;5681;53.316;13.950;2023-02-04T09:57:40;3.57;;;1.13;;
11247;SDS011;5681;53.316;13.950;2023-02-04T10:00:13;2.07;;;1.07;;
11247;SDS011;5681;53.316;13.950;2023-02-04T10:02:41;4.73;;;1.13;;
11247;SDS011;5681;53.316;13.950;2023-02-04T10:05:08;2.37;;;0.97;;
11247;SDS011;5681;53.316;13.950;2023-02-04T10:07:39;6.67;;;1.20;;
11247;SDS011;5681;53.316;13.950;2023-02-04T10:10:08;3.40;;;1.03;;
11247;SDS011;5681;53.316;13.950;2023-02-04T10:12:39;1.90;;;0.90;;
11247;SDS011;5681;53.316;13.950;2023-02-04T10:15:07;1.63;;;0.97;;
11247;SDS011;5681;53.316;13.950;2023-02-04T10:17:35;1.20;;;0.83;;
11247;SDS011;5681;53.316;13.950;2023-02-04T10:20:01;0.93;;;0.83;;
11247;SDS011;5681;53.316;13.950;2023-02-04T10:22:28;3.17;;;1.30;;
11247;SDS011;5681;53.316;13.950;2023-02-04T10:24:55;2.77;;;0.83;;
11247;SDS011;5681;53.316;13.950;2023-02-04T10:27:22;2.97;;;1.00;;
11247;SDS011;5681;53.316;13.950;2023-02-04T10:29:55;3.47;;;1.10;;
11247;SDS011;5681;53.316;13.950;2023-02-04T10:32:26;5.07;;;1.27;;
11247;SDS011;5681;53.316;13.950;2023-02-04T10:34:56;1.23;;;0.80;;
11247;SDS011;5681;53.316;13.950;2023-02-04T10:37:24;2.03;;;1.03;;
11247;SDS011;5681;53.316;13.950;2023-02-04T10:39:50;1.83;;;1.10;;
11247;SDS011;5681;53.316;13.950;2023-02-04T10:42:20;4.07;;;1.00;;
11247;SDS011;5681;53.316;13.950;2023-02-04T10:44:47;2.60;;;1.13;;
11247;SDS011;5681;53.316;13.950;2023-02-04T10:47:15;2.80;;;1.00;;
11247;SDS011;5681;53.316;13.950;2023-02-04T10:49:50;1.87;;;1.03;;
11247;SDS011;5681;53.316;13.950;2023-02-04T10:52:17;3.50;;;1.20;;
11247;SDS011;5681;53.316;13.950;2023-02-04T10:54:45;1.67;;;0.90;;
11247;SDS011;5681;53.316;13.950;2023-02-04T10:57:13;3.27;;;1.30;;
11247;SDS011;5681;53.316;13.950;2023-02-04T10:59:44;2.57;;;1.23;;
11247;SDS011;5681;53.316;13.950;2023-02-04T11:05:02;2.47;;;1.27;;
11247;SDS011;5681;53.316;13.950;2023-02-04T11:07:29;2.13;;;0.90;;
11247;SDS011;5681;53.316;13.950;2023-02-04T11:09:55;1.30;;;0.70;;
11247;SDS011;5681;53.316;13.950;2023-02-04T11:12:23;1.40;;;0.80;;
11247;SDS011;5681;53.316;13.950;2023-02-04T11:15:03;1.40;;;0.90;;
11247;SDS011;5681;53.316;13.950;2023-02-04T11:17:31;1.47;;;0.70;;
11247;SDS011;5681;53.316;13.950;2023-02-04T11:19:59;0.60;;;0.60;;
11247;SDS011;5681;53.316;13.950;2023-02-04T11:22:35;1.43;;;0.80;;
11247;SDS011;5681;53.316;13.950;2023-02-04T11:27:57;2.60;;;1.10;;
11247;SDS011;5681;53.316;13.950;2023-02-04T11:30:29;1.13;;;0.80;;
11247;SDS011;5681;53.316;13.950;2023-02-04T11:33:00;2.03;;;1.00;;
11247;SDS011;5681;53.316;13.950;2023-02-04T11:35:27;2.47;;;1.03;;
11247;SDS011;5681;53.316;13.950;2023-02-04T11:37:54;2.33;;;0.90;;
11247;SDS011;5681;53.316;13.950;2023-02-04T11:40:22;2.43;;;1.27;;
11247;SDS011;5681;53.316;13.950;2023-02-04T11:42:55;1.27;;;0.70;;
11247;SDS011;5681;53.316;13.950;2023-02-04T11:45:23;1.03;;;0.87;;
11247;SDS011;5681;53.316;13.950;2023-02-04T11:47:52;1.40;;;0.80;;
11247;SDS011;5681;53.316;13.950;2023-02-04T11:50:19;3.40;;;0.90;;
11247;SDS011;5681;53.316;13.950;2023-02-04T11:52:48;2.30;;;0.80;;
11247;SDS011;5681;53.316;13.950;2023-02-04T11:55:15;3.60;;;0.83;;
11247;SDS011;5681;53.316;13.950;2023-02-04T11:57:43;4.07;;;1.00;;
11247;SDS011;5681;53.316;13.950;2023-02-04T12:00:13;2.63;;;0.80;;
11247;SDS011;5681;53.316;13.950;2023-02-04T12:02:50;1.83;;;0.80;;
11247;SDS011;5681;53.316;13.950;2023-02-04T12:05:21;1.83;;;0.70;;
11247;SDS011;5681;53.316;13.950;2023-02-04T12:07:47;1.97;;;0.77;;
11247;SDS011;5681;53.316;13.950;2023-02-04T12:10:21;1.77;;;0.90;;
11247;SDS011;5681;53.316;13.950;2023-02-04T12:12:49;2.80;;;0.60;;
11247;SDS011;5681;53.316;13.950;2023-02-04T12:15:19;2.37;;;0.80;;
11247;SDS011;5681;53.316;13.950;2023-02-04T12:18:01;1.73;;;0.70;;
11247;SDS011;5681;53.316;13.950;2023-02-04T12:20:28;2.33;;;0.60;;
11247;SDS011;5681;53.316;13.950;2023-02-04T12:22:55;2.80;;;1.13;;
11247;SDS011;5681;53.316;13.950;2023-02-04T12:25:22;4.73;;;0.97;;
11247;SDS011;5681;53.316;13.950;2023-02-04T12:27:48;2.13;;;0.90;;
11247;SDS011;5681;53.316;13.950;2023-02-04T12:30:15;2.40;;;0.97;;
11247;SDS011;5681;53.316;13.950;2023-02-04T12:32:42;1.30;;;0.63;;
11247;SDS011;5681;53.316;13.950;2023-02-04T12:35:10;0.80;;;0.70;;
11247;SDS011;5681;53.316;13.950;2023-02-04T12:37:36;2.13;;;0.60;;
11247;SDS011;5681;53.316;13.950;2023-02-04T12:40:03;1.10;;;0.70;;
11247;SDS011;5681;53.316;13.950;2023-02-04T12:42:30;2.27;;;0.80;;
11247;SDS011;5681;53.316;13.950;2023-02-04T12:44:56;2.43;;;0.70;;
11247;SDS011;5681;53.316;13.950;2023-02-04T12:47:23;2.17;;;0.80;;
11247;SDS011;5681;53.316;13.950;2023-02-04T12:49:50;1.57;;;0.80;;
11247;SDS011;5681;53.316;13.950;2023-02-04T12:52:17;3.17;;;0.80;;
11247;SDS011;5681;53.316;13.950;2023-02-04T12:54:44;0.80;;;0.60;;
11247;SDS011;5681;53.316;13.950;2023-02-04T12:57:10;2.27;;;0.90;;
11247;SDS011;5681;53.316;13.950;2023-02-04T12:59:38;1.60;;;0.60;;
11247;SDS011;5681;53.316;13.950;2023-02-04T13:02:05;3.53;;;0.80;;
11247;SDS011;5681;53.316;13.950;2023-02-04T13:04:31;1.83;;;0.80;;
11247;SDS011;5681;53.316;13.950;2023-02-04T13:06:58;1.40;;;0.73;;
11247;SDS011;5681;53.316;13.950;2023-02-04T13:09:25;1.77;;;0.80;;
11247;SDS011;5681;53.316;13.950;2023-02-04T13:11:52;6.23;;;1.00;;
11247;SDS011;5681;53.316;13.950;2023-02-04T13:14:18;3.17;;;0.90;;
11247;SDS011;5681;53.316;13.950;2023-02-04T13:16:45;1.37;;;0.70;;
11247;SDS011;5681;53.316;13.950;2023-02-04T13:19:11;1.73;;;0.50;;
11247;SDS011;5681;53.316;13.950;2023-02-04T13:21:38;1.67;;;0.80;;
11247;SDS011;5681;53.316;13.950;2023-02-04T13:24:04;2.53;;;0.80;;
11247;SDS011;5681;53.316;13.950;2023-02-04T13:26:32;1.97;;;0.77;;
11247;SDS011;5681;53.316;13.950;2023-02-04T13:28:58;2.83;;;0.80;;
11247;SDS011;5681;53.316;13.950;2023-02-04T13:31:25;2.97;;;0.87;;
11247;SDS011;5681;53.316;13.950;2023-02-04T13:33:51;2.40;;;0.90;;
11247;SDS011;5681;53.316;13.950;2023-02-04T13:36:17;0.90;;;0.67;;
11247;SDS011;5681;53.316;13.950;2023-02-04T13:38:44;1.93;;;0.70;;
11247;SDS011;5681;53.316;13.950;2023-02-04T13:41:10;1.27;;;0.70;;
11247;SDS011;5681;53.316;13.950;2023-02-04T13:43:38;0.87;;;0.70;;
11247;SDS011;5681;53.316;13.950;2023-02-04T13:46:04;1.43;;;0.70;;
11247;SDS011;5681;53.316;13.950;2023-02-04T13:48:31;0.73;;;0.60;;
11247;SDS011;5681;53.316;13.950;2023-02-04T13:50:57;1.50;;;0.80;;
11247;SDS011;5681;53.316;13.950;2023-02-04T13:53:23;2.47;;;0.93;;
11247;SDS011;5681;53.316;13.950;2023-02-04T13:55:54;2.67;;;0.87;;
11247;SDS011;5681;53.316;13.950;2023-02-04T13:58:21;1.67;;;0.70;;
11247;SDS011;5681;53.316;13.950;2023-02-04T14:00:48;1.63;;;0.80;;
11247;SDS011;5681;53.316;13.950;2023-02-04T14:03:15;1.47;;;0.80;;
11247;SDS011;5681;53.316;13.950;2023-02-04T14:05:41;1.93;;;0.80;;
11247;SDS011;5681;53.316;13.950;2023-02-04T14:08:07;2.40;;;0.70;;
11247;SDS011;5681;53.316;13.950;2023-02-04T14:10:34;2.10;;;0.90;;
11247;SDS011;5681;53.316;13.950;2023-02-04T14:13:00;1.90;;;1.07;;
11247;SDS011;5681;53.316;13.950;2023-02-04T14:15:26;1.53;;;0.60;;
11247;SDS011;5681;53.316;13.950;2023-02-04T14:17:54;2.97;;;0.80;;
11247;SDS011;5681;53.316;13.950;2023-02-04T14:20:20;1.87;;;0.90;;
11247;SDS011;5681;53.316;13.950;2023-02-04T14:22:47;1.53;;;0.83;;
11247;SDS011;5681;53.316;13.950;2023-02-04T14:25:13;2.17;;;0.90;;
11247;SDS011;5681;53.316;13.950;2023-02-04T14:27:39;1.30;;;0.70;;
11247;SDS011;5681;53.316;13.950;2023-02-04T14:30:07;1.40;;;0.80;;
11247;SDS011;5681;53.316;13.950;2023-02-04T14:32:35;2.40;;;0.80;;
11247;SDS011;5681;53.316;13.950;2023-02-04T14:35:03;2.40;;;0.83;;
11247;SDS011;5681;53.316;13.950;2023-02-04T14:37:30;2.07;;;0.80;;
11247;SDS011;5681;53.316;13.950;2023-02-04T14:39:56;1.00;;;0.70;;
11247;SDS011;5681;53.316;13.950;2023-02-04T14:42:23;2.63;;;0.83;;
11247;SDS011;5681;53.316;13.950;2023-02-04T14:44:49;1.43;;;0.73;;
11247;SDS011;5681;53.316;13.950;2023-02-04T14:47:15;2.10;;;0.83;;
11247;SDS011;5681;53.316;13.950;2023-02-04T14:49:42;2.00;;;0.77;;
11247;SDS011;5681;53.316;13.950;2023-02-04T14:52:09;1.43;;;0.70;;
11247;SDS011;5681;53.316;13.950;2023-02-04T14:54:37;1.33;;;0.63;;
11247;SDS011;5681;53.316;13.950;2023-02-04T14:57:03;1.43;;;1.00;;